Terminal Aerodrome Forecast
Issued by NWS Wilmington, OH

Current Version | Previous Version | Graphics & Text | Print | Product List | Glossary On
Versions: 1 2 3 4 5 6 7 8 9 10 11 12 13 14 15 16 17 18 19 20 21 22 23 24 25 26 27
000
FTUS41 KILN 210500
TAFCMH
TAF
KCMH 210537Z 2106/2206 25005KT P6SM SCT120 SCT250
     FM210900 23005KT P6SM VCTS BKN050CB OVC120
     FM211400 23006KT P6SM -SHRA VCTS OVC050CB
      TEMPO 2114/2118 3SM -TSRA BR OVC025CB
     FM211800 23009KT P6SM VCSH SCT050 BKN100
     FM220000 23005KT P6SM SCT100 BKN150=

USA.gov is the U.S. government's official web portal to all federal, state and local government web resources and services.